Time;durP1;ratioP1;P1;durP2;ratioP2;P2;SDS_P1;SDS_P2;PMS_P1;PMS_P2;Temp;Humidity;BMP_temperature;BMP_pressure;BME280_temperature;BME280_humidity;BME280_pressure;Samples;Min_cycle;Max_cycle;Signal;HPM_P1;HPM_P2
2021/06/04 00:00:38;;;;;;;19.50;11.77;;;21.60;56.10;;;;;;5097735;28;20501;-84
2021/06/04 00:03:23;;;;;;;12.35;8.68;;;21.60;56.60;;;;;;5102933;28;20184;-83
2021/06/04 00:05:52;;;;;;;14.63;9.15;;;21.40;57.10;;;;;;5102399;28;20636;-83
2021/06/04 00:08:21;;;;;;;13.20;10.35;;;21.40;56.60;;;;;;5102203;28;20210;-82
2021/06/04 00:10:52;;;;;;;18.33;11.25;;;21.50;56.70;;;;;;5099835;28;20541;-83
2021/06/04 00:13:21;;;;;;;14.88;9.85;;;21.60;56.60;;;;;;5100402;28;20670;-83
2021/06/04 00:15:49;;;;;;;11.63;8.77;;;21.40;56.90;;;;;;5101458;28;20179;-82
2021/06/04 00:18:15;;;;;;;11.07;8.73;;;21.50;56.70;;;;;;5100243;28;20187;-83
2021/06/04 00:20:41;;;;;;;8.63;7.75;;;21.40;55.90;;;;;;5099720;28;20848;-82
2021/06/04 00:23:08;;;;;;;12.80;7.70;;;21.40;54.70;;;;;;5103428;28;20309;-82
2021/06/04 00:25:34;;;;;;;12.43;7.70;;;21.30;54.20;;;;;;5101718;28;20176;-82
2021/06/04 00:28:00;;;;;;;14.70;7.20;;;21.10;53.40;;;;;;5102272;28;20183;-82
2021/06/04 00:30:26;;;;;;;13.95;6.47;;;21.10;53.40;;;;;;5100761;28;20542;-83
2021/06/04 00:32:53;;;;;;;9.70;6.80;;;21.20;53.30;;;;;;5100772;28;20207;-82
2021/06/04 00:35:20;;;;;;;12.93;6.88;;;21.30;52.90;;;;;;5099626;28;20409;-82
2021/06/04 00:37:46;;;;;;;13.50;8.68;;;21.50;52.60;;;;;;5100375;28;20225;-83
2021/06/04 00:40:25;;;;;;;12.90;7.32;;;21.50;52.20;;;;;;5100076;28;20313;-83
2021/06/04 00:42:51;;;;;;;10.05;7.53;;;21.50;52.70;;;;;;5105407;28;20200;-83
2021/06/04 00:45:22;;;;;;;12.13;9.50;;;21.30;53.30;;;;;;5106640;28;20186;-84
2021/06/04 00:47:48;;;;;;;12.80;8.57;;;21.40;53.50;;;;;;5106730;28;20401;-83
2021/06/04 00:50:20;;;;;;;9.63;7.63;;;21.30;53.50;;;;;;5104689;28;20198;-84
2021/06/04 00:52:46;;;;;;;13.00;8.70;;;21.10;54.30;;;;;;5101321;28;20262;-83
2021/06/04 00:55:16;;;;;;;15.83;9.10;;;21.00;54.80;;;;;;5097172;28;20203;-83
2021/06/04 00:57:43;;;;;;;12.13;8.97;;;21.10;55.10;;;;;;5097641;28;20198;-83
2021/06/04 01:00:17;;;;;;;12.55;8.50;;;21.10;55.00;;;;;;5101813;28;20414;-82
2021/06/04 01:02:43;;;;;;;15.82;8.90;;;21.30;54.60;;;;;;5102281;28;20647;-83
2021/06/04 01:05:10;;;;;;;11.88;7.65;;;21.20;54.90;;;;;;5110081;28;20171;-83
2021/06/04 01:07:57;;;;;;;14.32;8.60;;;21.10;55.10;;;;;;5121898;28;20541;-83
2021/06/04 01:10:46;;;;;;;13.88;8.57;;;21.20;55.10;;;;;;5121544;28;20175;-83
2021/06/04 01:13:21;;;;;;;12.25;7.40;;;21.30;54.70;;;;;;5120271;28;20210;-84
2021/06/04 01:15:56;;;;;;;15.63;8.88;;;21.10;54.90;;;;;;5121699;28;20186;-83
2021/06/04 01:18:44;;;;;;;12.75;8.48;;;20.90;55.50;;;;;;5118923;28;20710;-84
2021/06/04 01:21:20;;;;;;;14.40;8.88;;;20.80;55.70;;;;;;5119057;28;20205;-85
2021/06/04 01:23:50;;;;;;;16.88;8.50;;;20.80;56.00;;;;;;5120767;28;20618;-82
2021/06/04 01:26:27;;;;;;;11.48;8.93;;;20.80;56.10;;;;;;5122644;28;20167;-82
2021/06/04 01:28:57;;;;;;;15.80;8.43;;;20.90;55.80;;;;;;5124863;27;20234;-82
2021/06/04 01:31:34;;;;;;;17.40;9.38;;;21.10;55.70;;;;;;5122747;28;20190;-83
2021/06/04 01:34:19;;;;;;;16.98;9.05;;;21.10;56.10;;;;;;5120673;28;20198;-82
2021/06/04 01:36:53;;;;;;;16.17;8.77;;;21.00;55.60;;;;;;5122441;28;20182;-83
2021/06/04 01:39:44;;;;;;;11.70;7.68;;;21.00;55.90;;;;;;5123061;28;20183;-82
2021/06/04 01:42:14;;;;;;;12.30;8.20;;;20.90;56.40;;;;;;5121277;28;20639;-82
2021/06/04 01:44:46;;;;;;;13.70;9.00;;;20.80;56.90;;;;;;5123214;28;20168;-83
2021/06/04 01:47:22;;;;;;;10.82;8.50;;;20.70;57.40;;;;;;5121665;28;20659;-83
2021/06/04 01:49:50;;;;;;;13.60;8.85;;;20.50;57.50;;;;;;5121480;28;20179;-83
2021/06/04 01:52:29;;;;;;;12.77;8.30;;;20.60;57.60;;;;;;5122844;28;20308;-82
2021/06/04 01:55:01;;;;;;;13.40;8.88;;;20.70;57.60;;;;;;5120284;28;20183;-84
2021/06/04 01:57:37;;;;;;;11.73;9.35;;;20.80;57.20;;;;;;5120067;28;20175;-84
2021/06/04 02:00:36;;;;;;;11.98;9.18;;;20.90;57.40;;;;;;5126372;28;20242;-86
2021/06/04 02:03:02;;;;;;;12.68;8.43;;;20.80;57.60;;;;;;5138440;28;20241;-82
2021/06/04 02:05:36;;;;;;;14.02;8.48;;;20.80;57.80;;;;;;5127370;28;20194;-83
2021/06/04 02:08:03;;;;;;;11.45;7.75;;;20.80;57.70;;;;;;5121373;28;20179;-85
2021/06/04 02:10:37;;;;;;;14.63;9.75;;;20.70;58.00;;;;;;5121116;28;20225;-84
2021/06/04 02:13:06;;;;;;;13.60;8.70;;;20.50;58.40;;;;;;5120709;28;20206;-84
2021/06/04 02:15:36;;;;;;;13.88;8.93;;;20.50;58.70;;;;;;5121645;28;20183;-83
2021/06/04 02:18:20;;;;;;;15.45;9.85;;;20.40;58.80;;;;;;5122611;28;20231;-83
2021/06/04 02:21:08;;;;;;;10.77;8.48;;;20.40;59.10;;;;;;5126349;28;20233;-84
2021/06/04 02:24:03;;;;;;;17.85;8.60;;;20.30;59.30;;;;;;5137868;28;20183;-83
2021/06/04 02:26:37;;;;;;;14.38;9.27;;;20.20;59.60;;;;;;5108097;28;20191;-82
2021/06/04 02:29:21;;;;;;;15.98;9.77;;;20.20;59.70;;;;;;5139185;28;20163;-85
2021/06/04 02:32:06;;;;;;;13.15;8.57;;;20.20;59.40;;;;;;5133341;28;20236;-83
2021/06/04 02:34:46;;;;;;;14.95;9.45;;;20.30;59.10;;;;;;5135045;28;20243;-82
2021/06/04 02:37:22;;;;;;;14.75;8.80;;;20.30;58.90;;;;;;5139610;28;20163;-81
2021/06/04 02:39:57;;;;;;;17.02;9.93;;;20.30;58.80;;;;;;5138780;28;20282;-84
2021/06/04 02:42:33;;;;;;;9.60;8.35;;;20.40;58.30;;;;;;5138285;28;20218;-81
2021/06/04 02:45:25;;;;;;;16.77;8.52;;;20.40;58.40;;;;;;5138323;28;20171;-83
2021/06/04 02:47:56;;;;;;;14.30;10.35;;;20.20;58.70;;;;;;5101871;28;20175;-82
2021/06/04 02:50:27;;;;;;;13.98;8.60;;;20.30;58.80;;;;;;5138632;28;20184;-83
2021/06/04 02:52:53;;;;;;;17.23;10.23;;;20.40;59.30;;;;;;5138358;28;20191;-82
2021/06/04 02:55:32;;;;;;;12.85;8.75;;;20.40;58.50;;;;;;5138402;28;20171;-83
2021/06/04 02:57:57;;;;;;;14.52;9.27;;;20.20;58.60;;;;;;5134180;27;20151;-83
2021/06/04 03:00:35;;;;;;;14.53;8.57;;;20.10;58.70;;;;;;5127388;28;20200;-82
2021/06/04 03:03:01;;;;;;;14.25;9.77;;;20.00;58.40;;;;;;5126587;28;20187;-84
2021/06/04 03:05:32;;;;;;;13.27;9.73;;;20.10;59.20;;;;;;5122954;28;20186;-83
2021/06/04 03:07:59;;;;;;;16.35;10.75;;;20.10;58.20;;;;;;5127422;28;20215;-83
2021/06/04 03:10:33;;;;;;;16.58;9.27;;;20.00;58.30;;;;;;5125925;28;20179;-83
2021/06/04 03:13:03;;;;;;;16.67;10.70;;;20.00;58.10;;;;;;5126248;28;20229;-83
2021/06/04 03:15:37;;;;;;;19.13;10.35;;;20.10;58.30;;;;;;5124171;28;20190;-83
2021/06/04 03:18:03;;;;;;;16.15;9.65;;;20.20;58.20;;;;;;5118016;28;20167;-83
2021/06/04 03:20:35;;;;;;;19.20;10.25;;;20.30;58.10;;;;;;5121726;28;20171;-83
2021/06/04 03:23:01;;;;;;;11.30;9.13;;;20.30;58.10;;;;;;5102044;28;20304;-84
2021/06/04 03:25:34;;;;;;;14.40;9.03;;;20.30;58.00;;;;;;5120399;28;20282;-83
2021/06/04 03:28:00;;;;;;;13.82;8.52;;;20.40;58.10;;;;;;5119205;28;20405;-83
2021/06/04 03:30:30;;;;;;;16.52;9.35;;;20.50;58.20;;;;;;5118875;28;20262;-84
2021/06/04 03:32:56;;;;;;;16.50;9.18;;;20.60;58.00;;;;;;5119248;28;20187;-83
2021/06/04 03:35:23;;;;;;;14.60;9.40;;;20.60;57.70;;;;;;5119838;28;20190;-83
2021/06/04 03:37:49;;;;;;;13.40;9.18;;;20.50;57.70;;;;;;5123733;28;20171;-83
2021/06/04 03:40:18;;;;;;;11.52;9.23;;;20.50;57.90;;;;;;5123292;28;20662;-83
2021/06/04 03:42:44;;;;;;;16.48;9.57;;;20.50;58.00;;;;;;5123025;28;20195;-83
2021/06/04 03:45:16;;;;;;;9.87;8.13;;;20.60;57.80;;;;;;5123760;28;20583;-83
2021/06/04 03:47:42;;;;;;;16.42;10.10;;;20.50;57.80;;;;;;5123329;28;20262;-83
2021/06/04 03:50:10;;;;;;;13.47;9.20;;;20.70;57.50;;;;;;5123249;28;20210;-83
2021/06/04 03:52:35;;;;;;;12.73;10.05;;;20.80;57.00;;;;;;5123219;28;20199;-83
2021/06/04 03:55:02;;;;;;;16.00;10.37;;;20.80;57.00;;;;;;5124152;28;20313;-83
2021/06/04 03:57:32;;;;;;;13.98;9.52;;;20.60;57.40;;;;;;5124234;28;20182;-84
2021/06/04 03:59:58;;;;;;;15.02;10.55;;;20.60;57.60;;;;;;5123943;28;20180;-83
2021/06/04 04:02:26;;;;;;;18.05;9.90;;;20.70;57.60;;;;;;5122900;28;20203;-83
2021/06/04 04:04:56;;;;;;;24.65;10.68;;;20.60;57.90;;;;;;5117222;28;20239;-83
2021/06/04 04:07:24;;;;;;;11.73;9.00;;;20.50;58.30;;;;;;5103822;28;20172;-83
2021/06/04 04:09:50;;;;;;;13.32;8.93;;;20.70;58.50;;;;;;5102980;28;20176;-84
2021/06/04 04:12:17;;;;;;;17.03;11.33;;;20.80;58.30;;;;;;5104345;28;20226;-83
2021/06/04 04:14:44;;;;;;;20.33;11.05;;;20.80;57.70;;;;;;5107970;28;20506;-83
2021/06/04 04:17:09;;;;;;;19.55;11.80;;;20.90;57.30;;;;;;5119447;28;20164;-82
2021/06/04 04:19:35;;;;;;;20.07;10.87;;;20.80;57.30;;;;;;5117964;28;20207;-82
2021/06/04 04:22:01;;;;;;;21.47;12.10;;;20.70;57.30;;;;;;5105518;28;20666;-82
2021/06/04 04:24:33;;;;;;;17.63;12.10;;;20.90;57.60;;;;;;5100609;28;20410;-83
2021/06/04 04:26:58;;;;;;;17.95;12.15;;;21.00;57.50;;;;;;5099995;28;20406;-83
2021/06/04 04:29:25;;;;;;;21.17;11.70;;;21.10;57.30;;;;;;5101518;28;20194;-83
2021/06/04 04:31:56;;;;;;;17.23;10.23;;;21.10;57.40;;;;;;5102080;28;20776;-83
2021/06/04 04:34:25;;;;;;;23.75;11.73;;;21.20;57.10;;;;;;5101184;28;20979;-83
2021/06/04 04:36:54;;;;;;;15.57;11.38;;;21.10;57.30;;;;;;5100991;28;20180;-83
2021/06/04 04:39:23;;;;;;;23.15;13.05;;;21.00;57.30;;;;;;5100970;28;20180;-84
2021/06/04 04:41:50;;;;;;;18.80;13.02;;;21.00;57.50;;;;;;5100094;28;20543;-83
2021/06/04 04:44:18;;;;;;;26.25;14.07;;;21.00;57.70;;;;;;5102313;28;20575;-82
2021/06/04 04:46:45;;;;;;;26.63;15.25;;;21.10;57.60;;;;;;5101713;28;20229;-82
2021/06/04 04:49:10;;;;;;;24.70;12.00;;;21.20;57.40;;;;;;5100972;28;20168;-83
2021/06/04 04:51:39;;;;;;;21.17;13.23;;;21.40;56.90;;;;;;5102331;28;20410;-82
2021/06/04 04:54:06;;;;;;;21.50;14.33;;;21.20;56.90;;;;;;5102604;28;20198;-83
2021/06/04 04:56:34;;;;;;;18.93;13.37;;;21.40;56.80;;;;;;5101630;28;20410;-84
2021/06/04 04:59:00;;;;;;;22.40;12.27;;;21.50;56.70;;;;;;5101317;28;20429;-83
2021/06/04 05:01:26;;;;;;;25.23;13.50;;;21.70;56.30;;;;;;5100907;28;20441;-84
2021/06/04 05:03:52;;;;;;;26.83;15.43;;;21.90;55.90;;;;;;5100901;28;20973;-83
2021/06/04 05:06:18;;;;;;;24.03;14.37;;;21.80;55.70;;;;;;5119177;28;20186;-84
2021/06/04 05:08:46;;;;;;;21.13;13.47;;;22.00;55.50;;;;;;5120718;28;20199;-84
2021/06/04 05:11:13;;;;;;;23.70;15.50;;;22.20;54.60;;;;;;5119865;28;20442;-84
2021/06/04 05:13:39;;;;;;;22.67;13.93;;;22.50;54.10;;;;;;5121707;28;20469;-84
2021/06/04 05:16:05;;;;;;;22.80;14.77;;;22.90;53.30;;;;;;5121402;28;20413;-84
2021/06/04 05:18:33;;;;;;;24.40;14.77;;;23.10;52.30;;;;;;5123967;28;20856;-84
2021/06/04 05:20:59;;;;;;;30.17;15.70;;;23.90;51.30;;;;;;5122009;28;20460;-84
2021/06/04 05:23:26;;;;;;;23.27;14.20;;;25.00;48.80;;;;;;5125335;28;20433;-84
2021/06/04 05:25:52;;;;;;;21.73;14.03;;;25.90;45.80;;;;;;5128153;28;20418;-84
2021/06/04 05:28:21;;;;;;;20.67;14.27;;;26.40;44.20;;;;;;5126733;28;20420;-84
2021/06/04 05:30:49;;;;;;;22.10;14.73;;;27.10;41.90;;;;;;5127184;28;20420;-85
2021/06/04 05:33:18;;;;;;;24.20;15.03;;;27.60;40.40;;;;;;5130065;28;20432;-84
2021/06/04 05:35:44;;;;;;;18.40;13.50;;;28.20;38.70;;;;;;5127328;28;20450;-85
2021/06/04 05:38:11;;;;;;;19.77;13.60;;;28.40;37.70;;;;;;5126106;28;20423;-85
2021/06/04 05:40:46;;;;;;;17.07;13.73;;;28.80;37.00;;;;;;5136420;28;20456;-84
2021/06/04 05:43:16;;;;;;;18.57;13.77;;;28.40;36.80;;;;;;5137646;28;20412;-86
2021/06/04 05:45:44;;;;;;;17.53;14.17;;;28.10;37.70;;;;;;5135997;28;20409;-85
2021/06/04 05:48:12;;;;;;;24.43;12.60;;;28.00;38.10;;;;;;5127907;28;20413;-85
2021/06/04 05:50:41;;;;;;;18.87;15.20;;;28.40;37.90;;;;;;5127516;28;20417;-85
2021/06/04 05:53:09;;;;;;;21.60;14.50;;;28.50;37.30;;;;;;5129769;28;20435;-86
2021/06/04 05:55:36;;;;;;;18.90;13.00;;;28.40;37.90;;;;;;5131166;28;20541;-85
2021/06/04 05:58:03;;;;;;;21.00;14.60;;;28.60;37.20;;;;;;5130420;28;20411;-85
2021/06/04 06:00:35;;;;;;;21.07;14.70;;;28.00;37.80;;;;;;5128176;28;20416;-85
2021/06/04 06:03:03;;;;;;;26.30;15.00;;;26.90;38.90;;;;;;5130811;28;20443;-85
2021/06/04 06:05:29;;;;;;;20.70;13.03;;;26.60;40.20;;;;;;5117417;28;20488;-86
2021/06/04 06:07:55;;;;;;;20.93;14.00;;;26.70;40.40;;;;;;5113698;28;20412;-84
2021/06/04 06:10:24;;;;;;;22.70;13.43;;;26.50;41.10;;;;;;5117581;28;20461;-87
2021/06/04 06:12:51;;;;;;;25.20;12.20;;;26.30;42.70;;;;;;5116468;28;20470;-84
2021/06/04 06:15:19;;;;;;;25.10;15.23;;;26.00;44.00;;;;;;5107455;28;20447;-84
2021/06/04 06:17:44;;;;;;;23.63;13.67;;;25.80;44.90;;;;;;5100298;28;20415;-85
2021/06/04 06:20:13;;;;;;;24.63;13.13;;;25.60;45.10;;;;;;5098763;28;20413;-85
2021/06/04 06:22:39;;;;;;;25.30;14.20;;;25.50;46.00;;;;;;5097911;28;20235;-85
2021/06/04 06:25:12;;;;;;;29.83;16.13;;;25.50;45.80;;;;;;5098307;28;20447;-86
2021/06/04 06:27:38;;;;;;;19.93;13.37;;;25.80;45.60;;;;;;5099297;28;20415;-85
2021/06/04 06:30:06;;;;;;;20.80;14.40;;;26.60;44.30;;;;;;5099629;28;20494;-85
2021/06/04 06:32:32;;;;;;;22.07;13.40;;;27.40;42.80;;;;;;5100367;28;20467;-86
2021/06/04 06:34:58;;;;;;;18.77;14.20;;;28.10;40.80;;;;;;5087921;28;20446;-86
2021/06/04 06:37:24;;;;;;;18.90;14.37;;;28.40;38.30;;;;;;5075431;28;20849;-86
2021/06/04 06:39:50;;;;;;;16.40;14.27;;;28.30;38.20;;;;;;5075473;28;20227;-86
2021/06/04 06:42:16;;;;;;;21.30;15.30;;;28.10;38.50;;;;;;5074741;28;20463;-86
2021/06/04 06:44:42;;;;;;;32.67;19.37;;;28.20;38.50;;;;;;5075885;28;20425;-86
2021/06/04 06:47:11;;;;;;;24.13;15.93;;;27.90;37.80;;;;;;5077910;28;20745;-85
2021/06/04 06:49:36;;;;;;;32.90;16.90;;;27.80;38.30;;;;;;5076382;28;20192;-86
2021/06/04 06:52:03;;;;;;;32.23;16.30;;;27.50;39.00;;;;;;5096407;28;20412;-86
2021/06/04 06:54:31;;;;;;;21.60;15.47;;;27.60;40.00;;;;;;5095556;28;20225;-87
2021/06/04 06:56:59;;;;;;;25.30;15.27;;;27.30;40.50;;;;;;5098454;28;20539;-86
2021/06/04 06:59:29;;;;;;;23.90;14.47;;;27.60;39.90;;;;;;5091480;28;20427;-85
2021/06/04 07:01:59;;;;;;;20.83;14.80;;;27.70;39.80;;;;;;5078928;28;20533;-85
2021/06/04 07:04:25;;;;;;;19.70;13.30;;;27.80;39.80;;;;;;5085196;28;20420;-84
2021/06/04 07:06:51;;;;;;;17.07;13.77;;;27.60;40.50;;;;;;5100783;28;20552;-84
2021/06/04 07:09:18;;;;;;;19.57;13.77;;;27.30;40.30;;;;;;5092532;28;20184;-85
2021/06/04 07:11:50;;;;;;;20.80;12.80;;;27.40;40.40;;;;;;5102753;28;20487;-85
2021/06/04 07:14:22;;;;;;;17.83;11.63;;;27.50;41.40;;;;;;5100138;28;20477;-82
2021/06/04 07:16:49;;;;;;;17.30;10.77;;;27.40;40.60;;;;;;5081412;28;20406;-83
2021/06/04 07:19:14;;;;;;;20.73;11.07;;;27.30;41.00;;;;;;5089170;28;20470;-84
2021/06/04 07:21:42;;;;;;;18.67;11.07;;;27.10;41.40;;;;;;5098885;28;20880;-83
2021/06/04 07:24:13;;;;;;;18.40;9.73;;;27.20;41.60;;;;;;5086025;28;20192;-83
2021/06/04 07:26:41;;;;;;;12.60;10.07;;;27.20;41.30;;;;;;5081429;28;20432;-84
2021/06/04 07:29:07;;;;;;;12.60;9.00;;;27.30;41.30;;;;;;5081110;28;20410;-84
2021/06/04 07:31:33;;;;;;;13.70;9.37;;;27.40;41.20;;;;;;5078824;28;20414;-83
2021/06/04 07:34:02;;;;;;;11.60;9.50;;;26.90;41.20;;;;;;5082236;28;20437;-83
2021/06/04 07:36:31;;;;;;;12.40;9.60;;;26.70;42.10;;;;;;5079869;28;20194;-84
2021/06/04 07:38:59;;;;;;;13.80;8.20;;;26.70;43.10;;;;;;5079866;28;20421;-84
2021/06/04 07:41:28;;;;;;;8.67;7.60;;;26.50;43.60;;;;;;5099550;28;20514;-84
2021/06/04 07:43:54;;;;;;;20.43;9.20;;;26.10;45.10;;;;;;5117583;28;20461;-83
2021/06/04 07:46:22;;;;;;;17.17;8.30;;;26.10;45.40;;;;;;5116289;28;20848;-84
2021/06/04 07:48:49;;;;;;;18.53;8.60;;;26.20;45.50;;;;;;5116823;28;20434;-84
2021/06/04 07:51:18;;;;;;;11.73;7.70;;;26.20;45.30;;;;;;5097825;28;20431;-84
2021/06/04 07:53:45;;;;;;;19.07;9.40;;;26.10;46.00;;;;;;5097490;28;20497;-84
2021/06/04 07:56:15;;;;;;;12.60;8.07;;;26.20;46.00;;;;;;5095045;28;20852;-84
2021/06/04 07:58:41;;;;;;;15.93;8.53;;;26.30;46.00;;;;;;5097167;28;20398;-85
2021/06/04 08:01:07;;;;;;;12.80;8.40;;;26.40;45.40;;;;;;5097486;28;20481;-84
2021/06/04 08:03:34;;;;;;;13.40;8.30;;;26.30;45.50;;;;;;5096272;28;20205;-84
2021/06/04 08:06:03;;;;;;;8.53;7.60;;;26.20;45.70;;;;;;5111631;28;20427;-84
2021/06/04 08:08:29;;;;;;;20.83;9.77;;;26.30;46.10;;;;;;5119185;28;20439;-83
2021/06/04 08:10:56;;;;;;;13.47;9.80;;;26.10;45.80;;;;;;5119508;28;20424;-84
2021/06/04 08:13:23;;;;;;;11.40;8.40;;;26.20;46.10;;;;;;5119755;28;20544;-83
2021/06/04 08:16:00;;;;;;;14.00;9.80;;;26.10;46.60;;;;;;5085553;28;20440;-83
2021/06/04 08:18:31;;;;;;;14.90;9.13;;;25.90;46.50;;;;;;5078967;28;20430;-83
2021/06/04 08:20:57;;;;;;;15.30;9.13;;;26.10;46.60;;;;;;5086057;28;20461;-83
2021/06/04 08:23:27;;;;;;;15.40;9.53;;;26.20;46.20;;;;;;5103619;28;20497;-82
2021/06/04 08:25:57;;;;;;;13.40;7.80;;;26.10;46.60;;;;;;5104226;28;20398;-82
2021/06/04 08:28:24;;;;;;;12.50;8.50;;;26.30;46.50;;;;;;5102475;28;20509;-83
2021/06/04 08:30:51;;;;;;;13.63;7.80;;;26.20;46.50;;;;;;5102092;28;20411;-84
2021/06/04 08:33:21;;;;;;;11.73;9.00;;;26.40;46.40;;;;;;5103999;28;20453;-84
2021/06/04 08:35:47;;;;;;;13.80;9.67;;;26.40;45.40;;;;;;5103278;28;20420;-83
2021/06/04 08:38:13;;;;;;;10.47;8.00;;;26.30;45.70;;;;;;5103819;28;20422;-83
2021/06/04 08:40:39;;;;;;;13.30;7.97;;;26.10;45.80;;;;;;5102030;28;20872;-84
2021/06/04 08:43:29;;;;;;;11.37;8.10;;;26.10;46.10;;;;;;5080763;28;20466;-84
2021/06/04 08:46:32;;;;;;;12.73;8.97;;;26.00;46.00;;;;;;5092511;28;20921;-84
2021/06/04 08:49:49;;;;;;;13.73;10.00;;;26.20;46.90;;;;;;5099817;28;20448;-84
2021/06/04 08:52:30;;;;;;;14.63;10.17;;;26.50;46.80;;;;;;5057264;28;20435;-85
2021/06/04 08:55:17;;;;;;;11.57;9.10;;;26.40;47.00;;;;;;5099305;28;20439;-85
2021/06/04 08:57:56;;;;;;;15.73;8.40;;;26.30;47.60;;;;;;5100104;28;20419;-85
2021/06/04 09:00:34;;;;;;;16.30;10.63;;;26.30;47.30;;;;;;5102455;28;20392;-86
2021/06/04 09:03:12;;;;;;;13.47;9.70;;;26.30;47.90;;;;;;5101185;28;20950;-84
2021/06/04 09:05:44;;;;;;;17.33;11.23;;;26.40;48.00;;;;;;5113432;28;20475;-86
2021/06/04 09:08:15;;;;;;;14.30;11.10;;;26.50;48.30;;;;;;5120712;28;20413;-85
2021/06/04 09:10:55;;;;;;;15.33;10.80;;;26.40;48.40;;;;;;5119241;28;20512;-85
2021/06/04 09:13:29;;;;;;;22.77;14.10;;;26.50;48.80;;;;;;5120179;28;20438;-86
2021/06/04 09:16:06;;;;;;;15.30;11.57;;;26.10;49.60;;;;;;5102997;28;20432;-85
2021/06/04 09:18:57;;;;;;;15.57;12.27;;;26.30;50.00;;;;;;5118846;28;20408;-85
2021/06/04 09:21:43;;;;;;;18.33;12.60;;;26.60;49.20;;;;;;5133119;28;20461;-85
2021/06/04 09:24:15;;;;;;;22.60;13.30;;;26.60;49.40;;;;;;5130501;28;20449;-86
2021/06/04 09:26:41;;;;;;;17.10;11.30;;;26.60;49.10;;;;;;5120776;28;20411;-85
2021/06/04 09:29:12;;;;;;;16.03;11.53;;;26.60;49.10;;;;;;5120467;28;20414;-85
2021/06/04 09:31:43;;;;;;;12.70;10.80;;;26.70;48.50;;;;;;5119728;28;20414;-83
2021/06/04 09:34:21;;;;;;;15.17;13.37;;;26.40;48.20;;;;;;5121615;28;20533;-83
2021/06/04 09:36:52;;;;;;;22.63;17.23;;;26.40;49.60;;;;;;5119917;28;20410;-86
2021/06/04 09:39:26;;;;;;;12.93;9.90;;;26.40;51.00;;;;;;5090350;28;20529;-85
2021/06/04 09:42:03;;;;;;;15.40;13.63;;;26.50;51.10;;;;;;5080410;28;20462;-86
2021/06/04 09:44:29;;;;;;;22.00;14.30;;;26.70;50.30;;;;;;5102083;28;20416;-85
2021/06/04 09:47:01;;;;;;;20.20;14.63;;;26.90;49.60;;;;;;5107901;28;20458;-82
2021/06/04 09:49:27;;;;;;;19.37;15.20;;;26.70;49.40;;;;;;5098385;28;20424;-86
2021/06/04 09:51:57;;;;;;;22.07;15.30;;;26.70;49.50;;;;;;5088524;28;20442;-86
2021/06/04 09:54:29;;;;;;;21.67;15.77;;;26.70;49.80;;;;;;5077976;28;20175;-85
2021/06/04 09:57:08;;;;;;;21.30;15.00;;;26.90;50.00;;;;;;5096110;28;20911;-85
2021/06/04 09:59:36;;;;;;;23.57;17.23;;;27.00;50.80;;;;;;5096269;28;20859;-84
2021/06/04 10:02:18;;;;;;;22.83;17.80;;;27.00;50.60;;;;;;5096115;28;20824;-83
2021/06/04 10:04:44;;;;;;;31.10;20.20;;;27.10;50.80;;;;;;5101514;28;20472;-86
2021/06/04 10:07:21;;;;;;;24.80;18.83;;;26.90;50.40;;;;;;5117318;28;20441;-85
2021/06/04 10:09:47;;;;;;;28.87;21.13;;;26.90;50.70;;;;;;5117710;28;20172;-86
2021/06/04 10:12:30;;;;;;;29.53;20.47;;;27.00;51.20;;;;;;5117287;27;20511;-87
2021/06/04 10:14:59;;;;;;;26.80;17.63;;;27.20;50.90;;;;;;5117255;28;20507;-86
2021/06/04 10:20:39;;;;;;;24.67;18.90;;;27.20;50.90;;;;;;5118822;28;20399;-86
2021/06/04 10:23:14;;;;;;;26.70;20.70;;;27.20;51.00;;;;;;5117763;28;20453;-86
2021/06/04 10:25:53;;;;;;;26.17;19.63;;;27.20;51.10;;;;;;5115306;28;20405;-86
2021/06/04 10:28:42;;;;;;;26.43;20.30;;;27.40;51.00;;;;;;5115560;28;20892;-86
2021/06/04 10:31:16;;;;;;;24.90;18.30;;;27.40;50.60;;;;;;5116300;28;20752;-86
2021/06/04 10:34:01;;;;;;;21.90;15.30;;;27.70;49.60;;;;;;5116205;28;20416;-86
2021/06/04 10:36:35;;;;;;;23.40;16.50;;;27.60;48.40;;;;;;5115544;28;20412;-86
2021/06/04 10:39:10;;;;;;;20.00;15.57;;;27.60;48.50;;;;;;5116885;28;20932;-86
2021/06/04 10:41:46;;;;;;;25.77;15.53;;;27.50;48.60;;;;;;5117462;28;20458;-86
2021/06/04 10:44:12;;;;;;;22.20;15.03;;;27.60;48.00;;;;;;5115219;28;20806;-86
2021/06/04 10:46:47;;;;;;;24.50;16.03;;;27.80;47.50;;;;;;5108214;28;20494;-86
2021/06/04 10:49:52;;;;;;;23.20;16.87;;;27.80;47.30;;;;;;5095314;28;20306;-85
2021/06/04 10:52:41;;;;;;;23.60;17.70;;;27.80;47.20;;;;;;5097003;28;20533;-86
2021/06/04 10:55:16;;;;;;;19.23;15.60;;;28.10;47.30;;;;;;5095199;28;20422;-86
2021/06/04 10:58:10;;;;;;;21.97;15.30;;;27.90;46.70;;;;;;5095192;28;20459;-86
2021/06/04 11:00:49;;;;;;;18.87;14.40;;;28.10;47.70;;;;;;5066557;28;20425;-86
2021/06/04 11:03:25;;;;;;;14.80;13.20;;;28.60;46.00;;;;;;5094946;28;20468;-85
2021/06/04 11:06:16;;;;;;;11.00;9.90;;;28.70;45.20;;;;;;5102404;28;20420;-86
2021/06/04 11:09:01;;;;;;;12.67;10.70;;;28.80;42.90;;;;;;5113462;28;20413;-85
2021/06/04 11:11:58;;;;;;;15.87;11.83;;;29.10;43.00;;;;;;5095160;28;20445;-86
2021/06/04 11:14:54;;;;;;;19.67;11.30;;;29.40;42.10;;;;;;5098805;28;20406;-86
2021/06/04 11:17:31;;;;;;;17.43;13.97;;;29.50;41.70;;;;;;5095055;28;20456;-85
2021/06/04 11:20:28;;;;;;;24.23;17.50;;;29.30;42.60;;;;;;5095459;28;20409;-85
2021/06/04 11:23:15;;;;;;;25.40;17.07;;;28.70;44.20;;;;;;5087077;28;20454;-85
2021/06/04 11:25:50;;;;;;;20.60;14.60;;;28.40;45.30;;;;;;5095325;28;20417;-85
2021/06/04 11:28:40;;;;;;;79.07;24.20;;;28.40;45.80;;;;;;5095702;28;20412;-86
2021/06/04 11:31:12;;;;;;;23.73;16.00;;;28.40;45.40;;;;;;5094278;28;20910;-86
2021/06/04 11:33:40;;;;;;;19.07;15.87;;;28.40;45.30;;;;;;5094457;28;20452;-87
2021/06/04 11:36:21;;;;;;;20.70;15.90;;;28.50;45.70;;;;;;5095201;28;20421;-86
2021/06/04 11:38:59;;;;;;;20.90;14.60;;;28.50;45.30;;;;;;5094397;28;20405;-86
2021/06/04 11:41:32;;;;;;;19.57;12.90;;;28.60;44.50;;;;;;5094541;28;20485;-87
2021/06/04 11:44:22;;;;;;;23.40;12.97;;;28.50;43.80;;;;;;5095680;28;20789;-86
2021/06/04 11:47:15;;;;;;;19.93;13.07;;;28.70;43.40;;;;;;5095687;28;20498;-86
2021/06/04 11:49:53;;;;;;;16.97;15.10;;;28.90;43.30;;;;;;5094725;28;20409;-86
2021/06/04 11:52:27;;;;;;;14.70;13.30;;;29.10;43.70;;;;;;5093740;28;20429;-86
2021/06/04 11:55:26;;;;;;;23.33;13.43;;;29.30;43.10;;;;;;5098169;28;20390;-85
2021/06/04 11:58:13;;;;;;;14.00;12.70;;;29.30;43.50;;;;;;5077225;28;20406;-86
2021/06/04 12:01:10;;;;;;;25.73;16.10;;;29.30;43.60;;;;;;5100367;28;20425;-86
2021/06/04 12:03:36;;;;;;;16.93;14.83;;;29.10;43.80;;;;;;5100047;28;20411;-86
2021/06/04 12:06:28;;;;;;;17.03;14.63;;;29.20;43.20;;;;;;5116324;28;20499;-86
2021/06/04 12:08:58;;;;;;;18.53;15.27;;;29.30;43.00;;;;;;5120679;28;20404;-85
2021/06/04 12:11:28;;;;;;;19.13;14.30;;;29.10;42.50;;;;;;5121147;28;20994;-84
2021/06/04 12:13:54;;;;;;;19.10;14.27;;;29.00;43.30;;;;;;5119287;28;20980;-86
2021/06/04 12:16:25;;;;;;;22.10;14.47;;;28.70;44.10;;;;;;5119321;28;20831;-85
2021/06/04 12:19:23;;;;;;;20.30;15.00;;;28.60;44.50;;;;;;5122090;28;20403;-84
2021/06/04 12:21:50;;;;;;;31.90;13.93;;;28.30;45.30;;;;;;5120054;28;20455;-84
2021/06/04 12:24:29;;;;;;;20.87;15.70;;;28.30;46.00;;;;;;5115001;28;20421;-85
2021/06/04 12:27:11;;;;;;;20.57;15.20;;;28.40;45.80;;;;;;5100487;28;20487;-84
2021/06/04 12:29:44;;;;;;;20.40;16.83;;;28.40;45.80;;;;;;5098966;28;20463;-84
2021/06/04 12:32:14;;;;;;;16.30;14.50;;;28.30;45.30;;;;;;5099164;28;20436;-84
2021/06/04 12:34:40;;;;;;;15.17;13.63;;;28.50;45.30;;;;;;5098480;28;20410;-84
2021/06/04 12:37:11;;;;;;;26.10;16.90;;;28.50;45.30;;;;;;5099741;28;20433;-84
2021/06/04 12:39:55;;;;;;;17.20;12.90;;;28.50;45.20;;;;;;5097494;28;20460;-84
2021/06/04 12:42:35;;;;;;;17.60;14.50;;;28.70;44.90;;;;;;5099120;28;20455;-85
2021/06/04 12:45:16;;;;;;;17.63;14.70;;;28.70;44.60;;;;;;5099913;28;20473;-85
2021/06/04 12:48:12;;;;;;;22.13;17.07;;;28.90;43.70;;;;;;5083661;28;20411;-85
2021/06/04 12:50:42;;;;;;;17.10;15.27;;;29.10;43.60;;;;;;5071546;28;20418;-85
2021/06/04 12:53:18;;;;;;;21.27;16.13;;;29.10;44.40;;;;;;5080468;28;20434;-85
2021/06/04 12:55:46;;;;;;;19.63;15.63;;;28.80;45.20;;;;;;5082235;28;20438;-84
2021/06/04 12:58:14;;;;;;;18.47;15.37;;;28.80;44.70;;;;;;5091470;28;20424;-84
2021/06/04 13:00:41;;;;;;;22.93;14.97;;;28.40;44.80;;;;;;5094802;28;20425;-85